createdAt,value
2018-12-13T00:01:14.004Z,6.80
2018-12-13T00:05:25.860Z,6.80
2018-12-13T00:09:38.039Z,6.80
2018-12-13T00:13:49.583Z,6.80
2018-12-13T00:18:01.611Z,6.80
2018-12-13T00:22:13.424Z,6.80
2018-12-13T00:26:25.372Z,6.80
2018-12-13T00:30:39.333Z,6.70
2018-12-13T00:34:51.334Z,6.70
2018-12-13T00:39:03.339Z,6.70
2018-12-13T00:43:15.544Z,6.70
2018-12-13T00:47:27.177Z,6.70
2018-12-13T00:51:39.111Z,6.70
2018-12-13T00:55:51.103Z,6.70
2018-12-13T01:00:03.265Z,6.70
2018-12-13T01:04:15.453Z,6.60
2018-12-13T01:08:27.633Z,6.60
2018-12-13T01:12:39.789Z,6.60
2018-12-13T01:16:51.450Z,6.60
2018-12-13T01:21:03.287Z,6.50
2018-12-13T01:25:15.291Z,6.50
2018-12-13T01:29:27.403Z,6.50
2018-12-13T01:33:39.099Z,6.50
2018-12-13T01:37:51.016Z,6.50
2018-12-13T01:42:03.124Z,6.50
2018-12-13T01:46:15.405Z,6.50
2018-12-13T01:50:27.585Z,6.50
2018-12-13T01:54:39.748Z,6.50
2018-12-13T01:58:51.789Z,6.50
2018-12-13T02:03:03.958Z,6.50
2018-12-13T02:07:15.964Z,6.50
2018-12-13T02:11:27.744Z,6.40
2018-12-13T02:15:39.578Z,6.40
2018-12-13T02:19:51.825Z,6.40
2018-12-13T02:24:04.018Z,6.40
2018-12-13T02:28:16.091Z,6.30
2018-12-13T02:32:27.913Z,6.30
2018-12-13T02:36:39.642Z,6.30
2018-12-13T02:40:51.606Z,6.30
2018-12-13T02:45:03.634Z,6.30
2018-12-13T02:49:15.253Z,6.30
2018-12-13T02:53:26.944Z,6.30
2018-12-13T02:57:38.811Z,6.30
2018-12-13T03:01:50.976Z,6.30
2018-12-13T03:06:02.830Z,6.30
2018-12-13T03:10:14.544Z,6.30
2018-12-13T03:14:26.360Z,6.30
2018-12-13T03:18:38.459Z,6.30
2018-12-13T03:22:51.217Z,6.30
2018-12-13T03:27:03.591Z,6.30
2018-12-13T03:31:15.529Z,6.30
2018-12-13T03:35:27.435Z,6.20
2018-12-13T03:39:39.388Z,6.30
2018-12-13T03:43:51.485Z,6.20
2018-12-13T03:48:03.123Z,6.30
2018-12-13T03:52:15.138Z,6.30
2018-12-13T03:56:26.904Z,6.30
2018-12-13T04:00:38.988Z,6.30
2018-12-13T04:04:50.562Z,6.30
2018-12-13T04:09:02.307Z,6.30
2018-12-13T04:13:14.442Z,6.20
2018-12-13T04:17:26.293Z,6.30
2018-12-13T04:21:38.065Z,6.30
2018-12-13T04:25:49.936Z,6.30
2018-12-13T04:30:01.917Z,6.30
2018-12-13T04:34:13.580Z,6.30
2018-12-13T04:38:25.255Z,6.30
2018-12-13T04:42:37.046Z,6.30
2018-12-13T04:46:48.912Z,6.40
2018-12-13T04:51:00.923Z,6.30
2018-12-13T04:55:12.943Z,6.30
2018-12-13T04:59:25.691Z,6.30
2018-12-13T05:03:37.804Z,6.30
2018-12-13T05:07:49.527Z,6.30
2018-12-13T05:12:01.466Z,6.30
2018-12-13T05:16:13.572Z,6.30
2018-12-13T05:20:25.775Z,6.20
2018-12-13T05:24:37.321Z,6.20
2018-12-13T05:28:49.067Z,6.20
2018-12-13T05:33:00.986Z,6.20
2018-12-13T05:37:12.989Z,6.20
2018-12-13T05:41:25.223Z,6.20
2018-12-13T05:45:37.359Z,6.20
2018-12-13T05:49:49.128Z,6.10
2018-12-13T05:54:00.961Z,6.20
2018-12-13T05:58:12.760Z,6.10
2018-12-13T06:02:24.720Z,6.10
2018-12-13T06:06:36.728Z,6.10
2018-12-13T06:10:48.952Z,6.10
2018-12-13T06:15:01.047Z,6.00
2018-12-13T06:19:13.140Z,6.00
2018-12-13T06:23:24.676Z,6.00
2018-12-13T06:27:36.386Z,5.90
2018-12-13T06:31:48.215Z,5.90
2018-12-13T06:36:00.252Z,5.80
2018-12-13T06:40:15.541Z,5.80
2018-12-13T06:44:26.113Z,5.70
2018-12-13T06:48:37.753Z,5.70
2018-12-13T06:52:49.571Z,5.70
2018-12-13T06:57:01.415Z,5.60
2018-12-13T07:01:13.195Z,5.60
2018-12-13T07:05:24.974Z,5.60
2018-12-13T07:09:37.020Z,5.60
2018-12-13T07:13:49.027Z,5.60
2018-12-13T07:18:01.046Z,5.60
2018-12-13T07:22:13.486Z,5.60
2018-12-13T07:26:25.456Z,5.60
2018-12-13T07:30:37.762Z,5.60
2018-12-13T07:34:49.437Z,5.50
2018-12-13T07:39:01.373Z,5.50
2018-12-13T07:43:13.471Z,5.50
2018-12-13T07:47:24.991Z,5.50
2018-12-13T07:51:36.824Z,5.60
2018-12-13T07:55:48.674Z,5.50
2018-12-13T08:00:00.386Z,5.50
2018-12-13T08:04:12.584Z,5.50
2018-12-13T08:08:24.693Z,5.50
2018-12-13T08:12:36.886Z,5.50
2018-12-13T08:16:48.440Z,5.60
2018-12-13T08:21:00.248Z,5.60
2018-12-13T08:25:12.064Z,5.60
2018-12-13T08:29:23.709Z,5.50
2018-12-13T08:33:35.966Z,5.60
2018-12-13T08:37:47.755Z,5.60
2018-12-13T08:41:59.611Z,5.50
2018-12-13T08:46:11.811Z,5.50
2018-12-13T08:50:23.465Z,5.50
2018-12-13T08:54:35.477Z,5.50
2018-12-13T08:58:47.682Z,5.50
2018-12-13T09:02:59.591Z,5.40
2018-12-13T09:07:11.459Z,5.40
2018-12-13T09:11:23.554Z,5.40
2018-12-13T09:15:35.572Z,5.40
2018-12-13T09:19:51.049Z,5.40
2018-12-13T09:24:05.542Z,5.40
2018-12-13T09:28:19.619Z,5.40
2018-12-13T09:32:31.403Z,5.40
2018-12-13T09:36:43.215Z,5.40
2018-12-13T09:40:55.267Z,5.30
2018-12-13T09:45:07.779Z,5.40
2018-12-13T09:49:19.696Z,5.40
2018-12-13T09:53:31.981Z,5.50
2018-12-13T09:57:44.014Z,5.60
2018-12-13T10:01:55.804Z,5.50
2018-12-13T10:06:07.650Z,5.60
2018-12-13T10:10:19.468Z,5.60
2018-12-13T10:14:31.321Z,5.60
2018-12-13T10:18:43.546Z,5.70
2018-12-13T10:22:55.731Z,5.60
2018-12-13T10:27:07.733Z,5.70
2018-12-13T10:31:20.896Z,5.70
2018-12-13T10:35:32.818Z,5.70
2018-12-13T10:39:45.002Z,5.70
2018-12-13T10:43:56.823Z,5.70
2018-12-13T10:48:08.551Z,5.70
2018-12-13T10:52:20.610Z,5.80
2018-12-13T10:56:32.704Z,5.80
2018-12-13T11:00:49.619Z,5.80
2018-12-13T11:05:01.805Z,5.80
2018-12-13T11:09:14.820Z,5.70
2018-12-13T11:13:26.698Z,5.70
2018-12-13T11:17:38.600Z,5.80
2018-12-13T11:21:50.955Z,5.80
2018-12-13T11:26:03.152Z,5.80
2018-12-13T11:30:26.162Z,5.80
2018-12-13T11:34:38.362Z,5.80
2018-12-13T11:38:50.383Z,5.80
2018-12-13T11:43:02.633Z,5.70
2018-12-13T11:47:14.251Z,5.80
2018-12-13T11:51:26.233Z,5.80
2018-12-13T11:55:41.577Z,5.90
2018-12-13T11:59:53.346Z,5.90
2018-12-13T12:04:05.106Z,5.80
2018-12-13T12:08:17.025Z,5.80
2018-12-13T12:12:58.859Z,5.90
2018-12-13T12:22:04.396Z,5.90
2018-12-13T12:26:24.106Z,5.80
2018-12-13T12:30:35.909Z,5.80
2018-12-13T12:34:47.697Z,5.90
2018-12-13T12:38:59.833Z,6.00
2018-12-13T12:43:11.860Z,6.00
2018-12-13T12:47:24.042Z,5.90
2018-12-13T12:51:36.099Z,5.90
2018-12-13T12:55:49.991Z,5.90
2018-12-13T13:00:02.226Z,6.00
2018-12-13T13:04:14.485Z,5.90
2018-12-13T13:08:26.381Z,5.90
2018-12-13T13:12:38.607Z,5.90
2018-12-13T13:16:50.222Z,5.90
2018-12-13T13:21:02.022Z,5.90
2018-12-13T13:25:16.282Z,5.90
2018-12-13T13:29:29.541Z,5.90
2018-12-13T13:33:41.586Z,5.90
2018-12-13T13:37:54.239Z,5.90
2018-12-13T13:42:06.132Z,5.80
2018-12-13T13:46:18.230Z,5.90
2018-12-13T13:50:30.332Z,5.90
2018-12-13T13:54:41.946Z,5.90
2018-12-13T13:58:54.052Z,6.00
2018-12-13T14:03:06.185Z,6.00
2018-12-13T14:07:18.019Z,5.90
2018-12-13T14:11:30.100Z,5.90
2018-12-13T14:15:42.069Z,6.00
2018-12-13T14:19:53.965Z,6.00
2018-12-13T14:24:05.970Z,6.10
2018-12-13T14:28:18.073Z,5.90
2018-12-13T14:32:30.324Z,5.90
2018-12-13T14:36:42.485Z,6.00
2018-12-13T14:40:54.631Z,6.00
2018-12-13T14:45:06.857Z,6.00
2018-12-13T14:49:18.831Z,5.90
2018-12-13T14:53:31.046Z,5.90
2018-12-13T14:57:44.611Z,5.90
2018-12-13T15:01:56.761Z,5.90
2018-12-13T15:06:08.699Z,5.80
2018-12-13T15:10:20.794Z,5.70
2018-12-13T15:14:32.994Z,5.80
2018-12-13T15:18:44.544Z,5.80
2018-12-13T15:22:56.403Z,5.80
2018-12-13T15:27:08.220Z,5.70
2018-12-13T15:31:21.423Z,5.60
2018-12-13T15:35:33.187Z,5.60
2018-12-13T15:39:44.983Z,5.60
2018-12-13T15:43:56.739Z,5.60
2018-12-13T15:48:08.751Z,5.60
2018-12-13T15:52:20.969Z,5.60
2018-12-13T15:56:33.115Z,5.50
2018-12-13T16:00:45.183Z,5.50
2018-12-13T16:04:57.287Z,5.50
2018-12-13T16:09:09.975Z,5.50
2018-12-13T16:13:21.991Z,5.40
2018-12-13T16:17:37.295Z,5.40
2018-12-13T16:21:53.095Z,5.40
2018-12-13T16:26:04.747Z,5.50
2018-12-13T16:30:17.043Z,5.50
2018-12-13T16:34:29.050Z,5.40
2018-12-13T16:38:40.801Z,5.30
2018-12-13T16:42:55.676Z,5.20
2018-12-13T16:47:07.806Z,5.20
2018-12-13T16:51:19.517Z,5.30
2018-12-13T16:55:31.283Z,5.10
2018-12-13T16:59:43.095Z,5.20
2018-12-13T17:03:55.056Z,5.30
2018-12-13T17:08:07.354Z,5.30
2018-12-13T17:12:19.463Z,5.20
2018-12-13T17:16:31.543Z,5.10
2018-12-13T17:20:43.555Z,5.20
2018-12-13T17:24:55.530Z,5.30
2018-12-13T17:29:07.637Z,5.30
2018-12-13T17:33:19.895Z,5.10
2018-12-13T17:37:32.024Z,5.10
2018-12-13T17:41:44.084Z,5.00
2018-12-13T17:45:57.387Z,4.90
2018-12-13T17:50:09.337Z,4.90
2018-12-13T17:54:21.067Z,4.90
2018-12-13T17:58:32.832Z,4.80
2018-12-13T18:02:44.827Z,4.80
2018-12-13T18:06:56.936Z,4.90
2018-12-13T18:11:09.095Z,4.90
2018-12-13T18:15:20.646Z,4.90
2018-12-13T18:19:32.376Z,4.80
2018-12-13T18:23:44.193Z,4.90
2018-12-13T18:27:56.146Z,4.90
2018-12-13T18:32:12.277Z,4.90
2018-12-13T18:36:24.134Z,4.80
2018-12-13T18:40:35.917Z,4.70
2018-12-13T18:44:47.831Z,4.70
2018-12-13T18:48:59.948Z,4.80
2018-12-13T18:53:12.073Z,4.80
2018-12-13T18:57:24.179Z,4.80
2018-12-13T19:01:36.336Z,4.60
2018-12-13T19:05:48.304Z,4.70
2018-12-13T19:10:00.392Z,4.80
2018-12-13T19:14:12.529Z,4.80
2018-12-13T19:18:24.620Z,4.70
2018-12-13T19:22:36.723Z,4.60
2018-12-13T19:26:48.363Z,4.60
2018-12-13T19:31:00.172Z,4.70
2018-12-13T19:35:11.931Z,4.70
2018-12-13T19:39:23.824Z,4.70
2018-12-13T19:43:35.821Z,4.60
2018-12-13T19:47:47.464Z,4.70
2018-12-13T19:51:59.455Z,4.70
2018-12-13T19:56:11.275Z,4.70
2018-12-13T20:00:23.075Z,4.70
2018-12-13T20:04:35.058Z,4.60
2018-12-13T20:08:47.094Z,4.70
2018-12-13T20:12:59.057Z,4.70
2018-12-13T20:17:10.730Z,4.70
2018-12-13T20:21:22.467Z,4.60
2018-12-13T20:25:34.472Z,4.60
2018-12-13T20:29:52.642Z,4.70
2018-12-13T20:34:04.835Z,4.60
2018-12-13T20:38:16.726Z,4.60
2018-12-13T20:42:29.047Z,4.50
2018-12-13T20:46:41.078Z,4.50
2018-12-13T20:50:53.051Z,4.50
2018-12-13T20:55:04.904Z,4.60
2018-12-13T20:59:16.490Z,4.60
2018-12-13T21:03:28.356Z,4.50
2018-12-13T21:07:40.555Z,4.50
2018-12-13T21:11:52.659Z,4.60
2018-12-13T21:16:04.808Z,4.60
2018-12-13T21:20:16.879Z,4.60
2018-12-13T21:24:28.551Z,4.50
2018-12-13T21:28:40.625Z,4.40
2018-12-13T21:32:52.735Z,4.40
2018-12-13T21:37:04.577Z,4.50
2018-12-13T21:41:16.387Z,4.50
2018-12-13T21:45:28.787Z,4.40
2018-12-13T21:49:40.639Z,4.40
2018-12-13T21:53:52.626Z,4.50
2018-12-13T21:58:04.649Z,4.60
2018-12-13T22:02:16.751Z,4.60
2018-12-13T22:06:28.873Z,4.50
2018-12-13T22:10:40.952Z,4.40
2018-12-13T22:14:53.175Z,4.60
2018-12-13T22:19:05.271Z,4.60
2018-12-13T22:23:16.885Z,4.60
2018-12-13T22:27:28.732Z,4.50
2018-12-13T22:31:40.562Z,4.50
2018-12-13T22:35:52.570Z,4.50
2018-12-13T22:40:04.979Z,4.60
2018-12-13T22:44:17.146Z,4.50
2018-12-13T22:48:29.206Z,4.40
2018-12-13T22:52:41.345Z,4.40
2018-12-13T22:56:53.528Z,4.50
2018-12-13T23:01:05.271Z,4.40
2018-12-13T23:05:17.255Z,4.50
2018-12-13T23:09:29.258Z,4.30
2018-12-13T23:13:41.153Z,4.30
2018-12-13T23:17:53.258Z,4.40
2018-12-13T23:22:08.803Z,4.50
2018-12-13T23:26:20.929Z,4.40
2018-12-13T23:30:32.972Z,4.40
2018-12-13T23:34:45.049Z,4.30
2018-12-13T23:38:56.695Z,4.30
2018-12-13T23:43:08.810Z,4.40
2018-12-13T23:47:20.510Z,4.40
2018-12-13T23:51:32.544Z,4.40
2018-12-13T23:55:44.293Z,4.40
2018-12-13T23:59:56.388Z,4.30
